Lanesville, Indiana
Current Conditions -  °F | °C
As of 6:56 PM on Saturday 20 Dec 2014 (Local Time) from KSDF Reporting Station
Overcast Overcast  
Wind Chill: 28°   Ceiling: 6000
Heat Index: 34°   Visibility: 8mi
Dew Point: 26°   Wind: 7mph
Humidity: 73%   Direction: 10°N
Pressure: 30.28"   Gusts: NA
Location:  38.24°N, 85.99°W
Report Text: KSDF 202356Z 01006KT 8SM BKN060 OVC250 01/M03 A3028 RMK AO2 SLP260 T00111033 10039 20011 51010
Loading
Personal Weather Stations






























Interactive Weather Map New forecast layout! Learn more

10-Day Weather Forecast

Advertisements
Track Severe Weather on mobile